createdAt,value
2022-08-21T00:02:16.301Z,98554.56
2022-08-21T00:05:18.300Z,98556.94
2022-08-21T00:08:20.970Z,98555.31
2022-08-21T00:11:22.966Z,98549.50
2022-08-21T00:14:24.920Z,98543.72
2022-08-21T00:17:28.484Z,98542.19
2022-08-21T00:20:30.161Z,98541.75
2022-08-21T00:23:34.786Z,98536.78
2022-08-21T00:26:36.839Z,98540.34
2022-08-21T00:29:38.488Z,98549.38
2022-08-21T00:32:42.098Z,98546.06
2022-08-21T00:35:45.040Z,98546.44
2022-08-21T00:38:46.623Z,98540.41
2022-08-21T00:41:48.196Z,98538.69
2022-08-21T00:44:51.062Z,98532.66
2022-08-21T00:47:56.120Z,98536.53
2022-08-21T00:51:02.801Z,98540.28
2022-08-21T00:54:05.124Z,98543.97
2022-08-21T00:57:10.424Z,98547.50
2022-08-21T01:00:14.245Z,98549.41
2022-08-21T01:03:19.959Z,98550.28
2022-08-21T01:06:27.326Z,98547.50
2022-08-21T01:09:29.201Z,98545.69
2022-08-21T01:12:30.778Z,98543.63
2022-08-21T01:15:34.497Z,98539.97
2022-08-21T01:18:37.933Z,98538.34
2022-08-21T01:21:41.095Z,98544.03
2022-08-21T01:24:42.985Z,98547.69
2022-08-21T01:27:50.764Z,98543.50
2022-08-21T01:30:53.610Z,98549.84
2022-08-21T01:33:56.285Z,98541.66
2022-08-21T01:36:59.255Z,98545.00
2022-08-21T01:40:00.984Z,98537.03
2022-08-21T01:43:03.443Z,98539.84
2022-08-21T01:46:05.311Z,98535.31
2022-08-21T01:49:09.370Z,98536.50
2022-08-21T01:52:12.450Z,98526.84
2022-08-21T01:55:14.819Z,98528.84
2022-08-21T01:58:16.601Z,98530.88
2022-08-21T02:01:18.347Z,98522.94
2022-08-21T02:04:20.145Z,98520.13
2022-08-21T02:07:23.341Z,98511.31
2022-08-21T02:10:27.753Z,98516.94
2022-08-21T02:13:29.584Z,98516.72
2022-08-21T02:16:31.580Z,98510.69
2022-08-21T02:19:39.985Z,98512.81
2022-08-21T02:22:43.969Z,98513.34
2022-08-21T02:25:46.854Z,98503.97
2022-08-21T02:28:49.049Z,98504.38
2022-08-21T02:31:51.050Z,98506.22
2022-08-21T02:34:53.476Z,98506.97
2022-08-21T02:37:59.505Z,98508.16
2022-08-21T02:41:03.922Z,98509.13
2022-08-21T02:44:05.753Z,98505.47
2022-08-21T02:47:07.601Z,98505.66
2022-08-21T02:50:09.495Z,98501.44
2022-08-21T02:53:17.801Z,98500.81
2022-08-21T02:56:21.881Z,98500.22
2022-08-21T02:59:23.400Z,98501.78
2022-08-21T03:02:26.631Z,98490.34
2022-08-21T03:05:29.799Z,98492.16
2022-08-21T03:08:33.063Z,98492.31
2022-08-21T03:11:34.778Z,98499.47
2022-08-21T03:14:39.938Z,98490.44
2022-08-21T03:17:41.738Z,98494.94
2022-08-21T03:20:44.017Z,98498.28
2022-08-21T03:23:47.626Z,98496.34
2022-08-21T03:26:49.729Z,98491.53
2022-08-21T03:29:51.790Z,98496.91
2022-08-21T03:32:53.933Z,98501.31
2022-08-21T03:35:59.524Z,98498.41
2022-08-21T03:39:03.126Z,98496.47
2022-08-21T03:42:05.980Z,98497.31
2022-08-21T03:45:08.469Z,98496.47
2022-08-21T03:48:10.343Z,98500.88
2022-08-21T03:51:15.175Z,98504.22
2022-08-21T03:54:18.259Z,98501.66
2022-08-21T03:57:19.855Z,98501.66
2022-08-21T04:00:21.739Z,98500.97
2022-08-21T04:03:23.894Z,98502.28
2022-08-21T04:06:27.468Z,98502.47
2022-08-21T04:09:31.364Z,98506.34
2022-08-21T04:12:33.034Z,98514.53
2022-08-21T04:15:35.305Z,98510.22
2022-08-21T04:18:37.005Z,98519.50
2022-08-21T04:21:38.881Z,98522.38
2022-08-21T04:24:43.009Z,98524.88
2022-08-21T04:27:44.587Z,98523.69
2022-08-21T04:30:46.563Z,98526.38
2022-08-21T04:33:48.246Z,98528.75
2022-08-21T04:36:49.823Z,98527.16
2022-08-21T04:39:53.720Z,98522.72
2022-08-21T04:42:56.973Z,98534.13
2022-08-21T04:45:58.842Z,98527.91
2022-08-21T04:49:00.401Z,98533.94
2022-08-21T04:52:02.504Z,98534.91
2022-08-21T04:55:09.487Z,98537.59
2022-08-21T04:58:13.344Z,98547.06
2022-08-21T05:01:17.114Z,98548.03
2022-08-21T05:04:22.799Z,98549.00
2022-08-21T05:07:42.300Z,98549.88
2022-08-21T05:10:46.684Z,98546.31
2022-08-21T05:13:48.356Z,98548.16
2022-08-21T05:16:57.279Z,98547.94
2022-08-21T05:19:59.049Z,98547.63
2022-08-21T05:23:01.141Z,98551.63
2022-08-21T05:26:05.472Z,98553.34
2022-08-21T05:29:11.855Z,98555.75
2022-08-21T05:32:14.933Z,98552.53
2022-08-21T05:35:19.818Z,98552.19
2022-08-21T05:38:21.581Z,98557.06
2022-08-21T05:41:24.876Z,98560.03
2022-08-21T05:44:26.610Z,98558.66
2022-08-21T05:47:28.893Z,98553.81
2022-08-21T05:50:33.711Z,98549.69
2022-08-21T05:53:36.414Z,98566.59
2022-08-21T05:56:39.512Z,98569.41
2022-08-21T05:59:41.187Z,98568.66
2022-08-21T06:02:42.862Z,98562.63
2022-08-21T06:05:44.742Z,98569.09
2022-08-21T06:08:46.586Z,98569.09
2022-08-21T06:11:49.567Z,98563.81
2022-08-21T06:14:53.153Z,98561.13
2022-08-21T06:17:55.359Z,98571.69
2022-08-21T06:20:57.443Z,98571.34
2022-08-21T06:23:59.506Z,98571.00
2022-08-21T06:27:06.468Z,98575.97
2022-08-21T06:30:11.159Z,98579.22
2022-08-21T06:33:12.672Z,98571.53
2022-08-21T06:36:17.146Z,98574.66
2022-08-21T06:39:30.561Z,98563.66
2022-08-21T06:42:38.318Z,98569.56
2022-08-21T06:45:43.455Z,98564.84
2022-08-21T06:48:45.428Z,98566.22
2022-08-21T06:51:46.995Z,98566.75
2022-08-21T06:54:48.780Z,98571.59
2022-08-21T06:57:52.631Z,98567.72
2022-08-21T07:01:00.115Z,98571.56
2022-08-21T07:04:02.707Z,98563.75
2022-08-21T07:07:04.398Z,98561.84
2022-08-21T07:10:06.295Z,98552.97
2022-08-21T07:13:09.629Z,98550.25
2022-08-21T07:16:11.607Z,98551.47
2022-08-21T07:19:13.251Z,98556.66
2022-08-21T07:22:16.989Z,98556.06
2022-08-21T07:25:18.748Z,98553.25
2022-08-21T07:28:21.928Z,98555.09
2022-08-21T07:31:24.276Z,98548.50
2022-08-21T07:34:26.937Z,98550.22
2022-08-21T07:37:28.743Z,98549.53
2022-08-21T07:40:30.595Z,98550.28
2022-08-21T07:43:37.812Z,98549.44
2022-08-21T07:46:47.953Z,98546.38
2022-08-21T07:49:49.511Z,98558.44
2022-08-21T07:52:52.755Z,98546.41
2022-08-21T07:55:54.393Z,98548.91
2022-08-21T07:58:58.670Z,98533.94
2022-08-21T08:02:00.635Z,98542.56
2022-08-21T08:05:03.206Z,98540.59
2022-08-21T08:08:05.280Z,98539.63
2022-08-21T08:11:07.145Z,98541.94
2022-08-21T08:14:12.456Z,98533.50
2022-08-21T08:17:17.547Z,98532.50
2022-08-21T08:20:21.175Z,98532.00
2022-08-21T08:23:24.137Z,98534.09
2022-08-21T08:26:26.074Z,98532.75
2022-08-21T08:29:29.016Z,98526.72
2022-08-21T08:32:34.587Z,98523.66
2022-08-21T08:35:37.315Z,98526.34
2022-08-21T08:38:41.010Z,98520.69
2022-08-21T08:41:46.177Z,98527.69
2022-08-21T08:44:51.418Z,98518.81
2022-08-21T08:47:59.141Z,98517.88
2022-08-21T08:51:02.344Z,98515.16
2022-08-21T08:54:10.544Z,98523.88
2022-08-21T08:57:18.436Z,98523.34
2022-08-21T09:00:23.306Z,98519.16
2022-08-21T09:03:25.494Z,98522.31
2022-08-21T09:06:35.919Z,98513.94
2022-08-21T09:09:43.584Z,98513.63
2022-08-21T09:12:50.116Z,98513.66
2022-08-21T09:16:02.193Z,98506.63
2022-08-21T09:19:08.811Z,98506.69
2022-08-21T09:22:21.235Z,98511.97
2022-08-21T09:25:24.137Z,98509.84
2022-08-21T09:28:25.907Z,98509.63
2022-08-21T09:31:30.071Z,98514.59
2022-08-21T09:34:41.305Z,98516.09
2022-08-21T09:37:48.333Z,98509.03
2022-08-21T09:40:59.238Z,98513.50
2022-08-21T09:44:00.990Z,98503.13
2022-08-21T09:47:04.017Z,98500.97
2022-08-21T09:50:09.974Z,98504.84
2022-08-21T09:53:22.008Z,98504.66
2022-08-21T09:56:46.234Z,98507.38
2022-08-21T09:59:48.411Z,98507.13
2022-08-21T10:02:51.375Z,98497.19
2022-08-21T10:05:57.171Z,98499.50
2022-08-21T10:09:05.473Z,98499.50
2022-08-21T10:12:11.617Z,98489.06
2022-08-21T10:15:16.856Z,98490.63
2022-08-21T10:18:23.492Z,98489.78
2022-08-21T10:21:31.385Z,98488.63
2022-08-21T10:24:34.879Z,98486.03
2022-08-21T10:27:43.113Z,98488.66
2022-08-21T10:30:47.830Z,98477.75
2022-08-21T10:33:55.165Z,98478.06
2022-08-21T10:37:07.821Z,98474.47
2022-08-21T10:40:16.741Z,98483.19
2022-08-21T10:43:22.078Z,98472.03
2022-08-21T10:46:31.007Z,98473.91
2022-08-21T10:49:39.967Z,98478.03
2022-08-21T10:52:57.691Z,98479.38
2022-08-21T10:56:01.274Z,98476.47
2022-08-21T10:59:08.691Z,98466.63
2022-08-21T11:02:14.342Z,98476.06
2022-08-21T11:05:21.963Z,98467.81
2022-08-21T11:08:25.057Z,98476.38
2022-08-21T11:11:35.727Z,98469.94
2022-08-21T11:14:50.268Z,98467.53
2022-08-21T11:17:56.601Z,98470.63
2022-08-21T11:21:06.107Z,98466.34
2022-08-21T11:24:18.077Z,98467.94
2022-08-21T11:27:26.198Z,98467.22
2022-08-21T11:30:31.788Z,98464.03
2022-08-21T11:33:42.656Z,98471.97
2022-08-21T11:36:52.452Z,98460.00
2022-08-21T11:40:01.682Z,98458.16
2022-08-21T11:46:13.351Z,98461.97
2022-08-21T11:49:25.376Z,98468.78
2022-08-21T11:52:33.840Z,98472.22
2022-08-21T11:55:37.825Z,98473.81
2022-08-21T11:58:41.731Z,98460.09
2022-08-21T12:01:45.980Z,98461.44
2022-08-21T12:04:48.462Z,98453.19
2022-08-21T12:08:01.221Z,98474.38
2022-08-21T12:11:05.416Z,98465.16
2022-08-21T12:14:13.559Z,98456.69
2022-08-21T12:17:20.467Z,98456.50
2022-08-21T12:20:34.626Z,98458.81
2022-08-21T12:23:49.382Z,98450.22
2022-08-21T12:26:52.542Z,98460.25
2022-08-21T12:29:55.916Z,98459.38
2022-08-21T12:33:00.013Z,98456.44
2022-08-21T12:36:07.450Z,98449.84
2022-08-21T12:39:16.276Z,98453.28
2022-08-21T12:42:22.038Z,98449.72
2022-08-21T12:45:27.501Z,98445.91
2022-08-21T12:48:32.281Z,98447.13
2022-08-21T12:51:38.970Z,98441.91
2022-08-21T12:54:42.931Z,98440.66
2022-08-21T12:57:44.612Z,98445.91
2022-08-21T13:00:54.152Z,98434.34
2022-08-21T13:04:04.902Z,98443.81
2022-08-21T13:07:10.985Z,98447.63
2022-08-21T13:10:19.445Z,98439.09
2022-08-21T13:13:30.001Z,98439.88
2022-08-21T13:16:33.202Z,98442.19
2022-08-21T13:19:38.162Z,98443.53
2022-08-21T13:22:43.482Z,98435.09
2022-08-21T13:25:46.600Z,98437.19
2022-08-21T13:28:49.202Z,98430.94
2022-08-21T13:31:54.702Z,98430.28
2022-08-21T13:34:56.969Z,98429.75
2022-08-21T13:37:59.868Z,98423.06
2022-08-21T13:41:05.635Z,98428.25
2022-08-21T13:44:20.031Z,98436.44
2022-08-21T13:47:22.506Z,98421.72
2022-08-21T13:50:25.208Z,98422.75
2022-08-21T13:53:33.259Z,98424.44
2022-08-21T13:56:43.507Z,98417.31
2022-08-21T13:59:46.031Z,98421.13
2022-08-21T14:02:52.844Z,98424.13
2022-08-21T14:05:54.828Z,98430.28
2022-08-21T14:08:58.427Z,98423.44
2022-08-21T14:12:03.069Z,98428.38
2022-08-21T14:15:06.565Z,98429.41
2022-08-21T14:18:10.702Z,98413.69
2022-08-21T14:21:14.656Z,98413.44
2022-08-21T14:24:28.171Z,98418.38
2022-08-21T14:27:34.056Z,98413.72
2022-08-21T14:30:37.036Z,98422.53
2022-08-21T14:33:41.304Z,98420.94
2022-08-21T14:36:42.851Z,98417.41
2022-08-21T14:39:45.981Z,98415.88
2022-08-21T14:42:50.799Z,98419.66
2022-08-21T14:45:54.706Z,98419.41
2022-08-21T14:48:56.283Z,98416.28
2022-08-21T14:51:58.848Z,98409.25
2022-08-21T14:55:00.756Z,98412.34
2022-08-21T14:58:04.200Z,98414.81
2022-08-21T15:01:08.867Z,98417.16
2022-08-21T15:04:12.143Z,98406.97
2022-08-21T15:07:13.714Z,98408.06
2022-08-21T15:10:15.625Z,98412.53
2022-08-21T15:13:18.688Z,98410.81
2022-08-21T15:16:21.345Z,98413.53
2022-08-21T15:19:25.868Z,98408.38
2022-08-21T15:22:28.617Z,98406.50
2022-08-21T15:25:31.339Z,98423.41
2022-08-21T15:28:39.184Z,98421.72
2022-08-21T15:31:51.936Z,98413.84
2022-08-21T15:34:53.663Z,98415.09
2022-08-21T15:37:55.468Z,98411.97
2022-08-21T15:40:57.307Z,98410.66
2022-08-21T15:44:00.449Z,98415.50
2022-08-21T15:47:04.987Z,98416.00
2022-08-21T15:50:09.648Z,98413.03
2022-08-21T15:53:11.592Z,98418.47
2022-08-21T15:56:18.850Z,98416.06
2022-08-21T15:59:23.309Z,98417.38
2022-08-21T16:02:26.722Z,98425.69
2022-08-21T16:05:28.377Z,98409.69
2022-08-21T16:08:30.242Z,98419.72
2022-08-21T16:11:31.918Z,98420.00
2022-08-21T16:14:37.993Z,98415.69
2022-08-21T16:17:41.515Z,98416.59
2022-08-21T16:20:43.171Z,98417.72
2022-08-21T16:23:44.988Z,98414.31
2022-08-21T16:26:46.995Z,98422.03
2022-08-21T16:30:04.595Z,98420.00
2022-08-21T16:33:08.553Z,98418.00
2022-08-21T16:36:10.785Z,98414.16
2022-08-21T16:39:21.880Z,98418.59
2022-08-21T16:42:27.609Z,98413.47
2022-08-21T16:45:47.315Z,98409.03
2022-08-21T16:48:52.152Z,98396.44
2022-08-21T16:51:53.932Z,98402.41
2022-08-21T16:54:56.211Z,98397.81
2022-08-21T16:57:58.137Z,98398.63
2022-08-21T17:01:01.919Z,98404.81
2022-08-21T17:04:05.719Z,98395.88
2022-08-21T17:07:07.352Z,98402.53
2022-08-21T17:10:09.850Z,98394.59
2022-08-21T17:13:12.500Z,98402.66
2022-08-21T17:16:14.521Z,98402.53
2022-08-21T17:19:18.870Z,98398.69
2022-08-21T17:22:23.603Z,98406.13
2022-08-21T17:25:25.381Z,98406.44
2022-08-21T17:28:29.197Z,98410.75
2022-08-21T17:31:34.150Z,98402.34
2022-08-21T17:34:37.999Z,98400.53
2022-08-21T17:37:41.705Z,98403.28
2022-08-21T17:40:43.605Z,98401.16
2022-08-21T17:43:45.582Z,98400.03
2022-08-21T17:46:48.610Z,98401.47
2022-08-21T17:49:50.471Z,98405.63
2022-08-21T17:52:57.235Z,98407.22
2022-08-21T17:55:59.054Z,98402.38
2022-08-21T17:59:00.898Z,98410.06
2022-08-21T18:02:12.586Z,98408.94
2022-08-21T18:05:24.134Z,98416.78
2022-08-21T18:08:27.332Z,98420.94
2022-08-21T18:11:30.960Z,98425.22
2022-08-21T18:14:34.141Z,98424.94
2022-08-21T18:17:37.187Z,98420.09
2022-08-21T18:20:39.064Z,98419.50
2022-08-21T18:23:44.230Z,98417.38
2022-08-21T18:26:46.669Z,98423.50
2022-08-21T18:29:48.929Z,98423.19
2022-08-21T18:32:52.555Z,98428.19
2022-08-21T18:35:54.237Z,98431.31
2022-08-21T18:39:13.415Z,98430.88
2022-08-21T18:42:20.486Z,98424.00
2022-08-21T18:45:30.478Z,98428.97
2022-08-21T18:48:32.559Z,98428.56
2022-08-21T18:51:34.404Z,98437.78
2022-08-21T18:54:42.737Z,98436.38
2022-08-21T18:57:46.588Z,98440.50
2022-08-21T19:00:50.523Z,98444.59
2022-08-21T19:03:52.377Z,98448.59
2022-08-21T19:06:54.277Z,98448.84
2022-08-21T19:10:24.511Z,98451.69
2022-08-21T19:13:20.710Z,98450.97
2022-08-21T19:16:23.779Z,98451.25
2022-08-21T19:19:25.545Z,98457.81
2022-08-21T19:22:27.630Z,98456.34
2022-08-21T19:25:33.300Z,98462.75
2022-08-21T19:28:37.810Z,98465.63
2022-08-21T19:31:40.460Z,98463.19
2022-08-21T19:34:45.294Z,98460.72
2022-08-21T19:37:48.011Z,98461.84
2022-08-21T19:40:52.589Z,98462.28
2022-08-21T19:43:55.572Z,98464.28
2022-08-21T19:46:58.081Z,98462.66
2022-08-21T19:50:00.878Z,98466.50
2022-08-21T19:53:05.381Z,98466.91
2022-08-21T19:56:18.240Z,98460.88
2022-08-21T19:59:24.895Z,98460.44
2022-08-21T20:02:26.908Z,98461.53
2022-08-21T20:05:39.878Z,98469.19
2022-08-21T20:08:56.803Z,98468.88
2022-08-21T20:12:09.239Z,98467.09
2022-08-21T20:15:12.287Z,98465.91
2022-08-21T20:18:17.452Z,98466.22
2022-08-21T20:21:19.299Z,98463.56
2022-08-21T20:24:27.623Z,98460.78
2022-08-21T20:27:31.142Z,98462.72
2022-08-21T20:30:38.485Z,98465.31
2022-08-21T20:33:53.205Z,98467.03
2022-08-21T20:36:56.020Z,98469.13
2022-08-21T20:39:58.765Z,98474.16
2022-08-21T20:43:03.971Z,98471.72
2022-08-21T20:46:06.382Z,98471.41
2022-08-21T20:49:10.990Z,98471.53
2022-08-21T20:52:14.538Z,98468.69
2022-08-21T20:55:18.320Z,98474.25
2022-08-21T20:58:29.632Z,98472.28
2022-08-21T21:01:32.769Z,98474.38
2022-08-21T21:04:38.005Z,98478.94
2022-08-21T21:07:48.427Z,98469.56
2022-08-21T21:10:54.376Z,98472.72
2022-08-21T21:14:00.341Z,98472.63
2022-08-21T21:17:04.136Z,98471.63
2022-08-21T21:20:07.781Z,98476.28
2022-08-21T21:23:20.022Z,98472.75
2022-08-21T21:26:29.241Z,98481.03
2022-08-21T21:29:36.571Z,98479.94
2022-08-21T21:32:39.247Z,98470.63
2022-08-21T21:35:44.804Z,98477.13
2022-08-21T21:38:53.697Z,98481.66
2022-08-21T21:41:59.220Z,98482.47
2022-08-21T21:45:12.196Z,98480.41
2022-08-21T21:48:21.379Z,98483.56
2022-08-21T21:51:31.154Z,98479.72
2022-08-21T21:54:51.914Z,98492.09
2022-08-21T21:58:01.630Z,98486.44
2022-08-21T22:01:12.261Z,98484.47
2022-08-21T22:04:19.620Z,98481.22
2022-08-21T22:07:25.631Z,98483.69
2022-08-21T22:10:32.707Z,98475.06
2022-08-21T22:13:48.602Z,98478.25
2022-08-21T22:16:51.689Z,98478.56
2022-08-21T22:19:55.702Z,98476.00
2022-08-21T22:22:59.194Z,98477.22
2022-08-21T22:26:04.139Z,98480.34
2022-08-21T22:29:09.444Z,98483.63
2022-08-21T22:32:22.191Z,98482.34
2022-08-21T22:35:33.384Z,98479.13
2022-08-21T22:38:39.820Z,98491.22
2022-08-21T22:41:43.989Z,98480.66
2022-08-21T22:44:50.871Z,98480.88
2022-08-21T22:47:56.659Z,98474.00
2022-08-21T22:51:02.307Z,98475.97
2022-08-21T22:54:16.715Z,98479.75
2022-08-21T22:57:23.360Z,98472.88
2022-08-21T23:00:36.694Z,98472.69
2022-08-21T23:03:44.552Z,98478.66
2022-08-21T23:06:52.658Z,98473.81
2022-08-21T23:09:56.105Z,98475.88
2022-08-21T23:13:09.403Z,98478.16
2022-08-21T23:16:19.379Z,98479.38
2022-08-21T23:19:37.934Z,98477.09
2022-08-21T23:22:47.386Z,98474.84
2022-08-21T23:25:59.277Z,98481.41
2022-08-21T23:29:06.105Z,98481.56
2022-08-21T23:32:15.690Z,98483.19
2022-08-21T23:35:21.341Z,98486.34
2022-08-21T23:38:30.445Z,98484.41
2022-08-21T23:41:37.292Z,98476.44
2022-08-21T23:44:46.541Z,98477.72
2022-08-21T23:47:54.670Z,98476.63
2022-08-21T23:51:00.706Z,98479.75
2022-08-21T23:54:09.344Z,98482.91
2022-08-21T23:57:19.721Z,98477.34
